George Bush Intercontinental Houston Airport
KIAH : now visible

Airfield :











YOU CAN JOIN US ON...

 
LOGIN :

Register | Disclaimer

   EN    FR    IT 

 









Legend :    VFR   Marginal VFR   IFR   Intensive IFR   Very Intensive IFR
Visi :
Ceiling :
>= 8 km
>= 3000ft
5 to 8 km
1000 to 3000 ft
1500m to 5 km
500 to 1000 ft
800 to 1500m
200 to 500 ft
< 800m
< 200 ft
Symbols :   Thunderstorms  Fog  Heavy snow  Heavy precipitations  Wind > 20 kt







- Airport Elevation : 97 ft
- IATA code : IAH


KIAH - George Bush Intercontinental Houston

CURRENT METAR :
  • 210053Z 01007KT 10SM FEW070 SCT250 14/07 A2994 RMK AO2 SLP137 T01440067

EXPIRED METARs :
  • 202353Z 01006KT 10SM FEW070 FEW250 16/06 A2994 RMK AO2 SLP137 T01610061 10183 20133 53001
  • 202253Z 02007KT 10SM FEW070 FEW250 18/07 A2992 RMK AO2 SLP133 T01780067

TAF KIAH
Valid from the 21 at 00:00 until the 22 at 06:00 UTC


202340Z 2100/2206 02007KT P6SM SKC
FM210500 05006KT P6SM SCT060 SCT250
FM210800 05005KT P6SM OVC035
FM211000 03004KT P6SM BKN015 OVC030
FM211400 05008KT 6SM -DZ BR VCSH BKN008 OVC012
KZHU FIR / North America



MET'MAP, your aeronautical weather chart ! - Copyright ORBIFLY December 2007 - Disclaimer

ORBIFLY MET'MAP TEAM :

Programming & Development : Alexandra Zaïnal
Concept & Development : Baudouin d'Aumeries
Co-Development & Prog : Marc-Olivier Méhu
Technical & hardware support : Manuel Goepfert

Contact : metmap@orbifly.com




SOURCES & CREDITS :

   NOAA       Earth
Advisory